Terminal Aerodrome Forecast
Issued by NWS

Home | Current Version | Previous Version | Text Only | Print | Product List | Glossary On
Versions: 1 2 3 4 5 6 7 8 9 10 11 12 13 14 15 16
000
FTUS43 KDLH 200526
TAFBRD
TAF
KBRD 200526Z 2006/2106 18006KT P6SM SCT250
     FM200900 20005KT 5SM BR SKC
      TEMPO 2009/2013 1SM BR
     FM201400 30008KT P6SM SCT080 BKN150
     FM210100 29005KT P6SM SCT150=

USA.gov is the U.S. government's official web portal to all federal, state and local government web resources and services.